Matlacha, Florida
Current Conditions -  °F | °C
As of 9:00 AM on Monday 24 Nov 2014 (Local Time) from KFMY Reporting Station
Overcast Overcast  
Wind Chill: 26°   Ceiling: 800
Heat Index: 28°   Visibility: 10mi
Dew Point: 24°   Wind: 7mph
Humidity: 88%   Direction: 190°S
Pressure: 29.99"   Gusts: NA
Location:  26.6904°N, 82.0304°W
Report Text: KFMY 241400Z 19006KT 10SM OVC008 26/24 A2999 RMK AO2 T02610239
Loading
Personal Weather Stations






























Interactive Weather Map New forecast layout! Learn more

10-Day Weather Forecast

Advertisements
Track Severe Weather on mobile